createdAt,value
2018-04-01T00:01:21.374Z,4.70
2018-04-01T00:03:47.234Z,4.20
2018-04-01T00:06:13.832Z,5.37
2018-04-01T00:08:39.700Z,4.87
2018-04-01T00:11:05.656Z,4.67
2018-04-01T00:13:31.562Z,5.10
2018-04-01T00:15:57.501Z,4.97
2018-04-01T00:18:23.373Z,5.10
2018-04-01T00:20:49.388Z,6.03
2018-04-01T00:23:15.229Z,6.17
2018-04-01T00:25:41.083Z,6.30
2018-04-01T00:28:06.950Z,5.63
2018-04-01T00:30:34.447Z,6.10
2018-04-01T00:33:00.302Z,5.40
2018-04-01T00:35:26.125Z,6.10
2018-04-01T00:37:51.991Z,6.70
2018-04-01T00:40:17.852Z,6.03
2018-04-01T00:42:43.722Z,6.03
2018-04-01T00:45:09.600Z,6.23
2018-04-01T00:47:35.503Z,6.30
2018-04-01T00:50:01.370Z,6.27
2018-04-01T00:52:27.224Z,6.90
2018-04-01T00:54:53.833Z,6.80
2018-04-01T00:57:19.737Z,6.70
2018-04-01T00:59:45.572Z,6.93
2018-04-01T01:02:12.184Z,6.90
2018-04-01T01:04:38.059Z,7.17
2018-04-01T01:07:03.929Z,8.07
2018-04-01T01:09:29.781Z,8.40
2018-04-01T01:11:55.685Z,7.83
2018-04-01T01:14:22.941Z,10.10
2018-04-01T01:16:49.441Z,8.07
2018-04-01T01:19:15.897Z,8.47
2018-04-01T01:21:42.493Z,7.53
2018-04-01T01:24:08.361Z,7.33
2018-04-01T01:26:34.188Z,7.50
2018-04-01T01:29:00.048Z,7.80
2018-04-01T01:31:25.923Z,7.70
2018-04-01T01:33:51.783Z,7.10
2018-04-01T01:36:17.649Z,7.50
2018-04-01T01:38:43.505Z,8.20
2018-04-01T01:41:09.369Z,8.60
2018-04-01T01:43:35.241Z,8.03
2018-04-01T01:46:01.136Z,7.97
2018-04-01T01:48:27.713Z,8.13
2018-04-01T01:50:54.304Z,8.70
2018-04-01T01:53:20.164Z,8.97
2018-04-01T01:55:46.770Z,8.70
2018-04-01T01:58:12.649Z,9.00
2018-04-01T02:00:38.531Z,8.77
2018-04-01T02:03:05.176Z,9.43
2018-04-01T02:05:31.067Z,9.77
2018-04-01T02:07:56.951Z,8.83
2018-04-01T02:10:22.831Z,10.60
2018-04-01T02:12:49.458Z,9.03
2018-04-01T02:15:16.080Z,8.97
2018-04-01T02:17:42.723Z,9.80
2018-04-01T02:20:08.647Z,9.37
2018-04-01T02:22:34.517Z,9.30
2018-04-01T02:25:00.386Z,8.93
2018-04-01T02:27:26.237Z,8.03
2018-04-01T02:29:52.129Z,8.07
2018-04-01T02:32:18.169Z,6.50
2018-04-01T02:34:44.024Z,6.27
2018-04-01T02:37:09.880Z,6.80
2018-04-01T02:39:35.753Z,4.93
2018-04-01T02:42:01.602Z,6.57
2018-04-01T02:44:27.497Z,6.43
2018-04-01T02:46:54.097Z,5.97
2018-04-01T02:49:19.957Z,4.90
2018-04-01T02:51:46.560Z,4.73
2018-04-01T02:54:12.457Z,4.03
2018-04-01T02:56:38.286Z,5.30
2018-04-01T02:59:04.144Z,4.90
2018-04-01T03:01:30.068Z,5.17
2018-04-01T03:03:55.955Z,4.37
2018-04-01T03:06:22.542Z,4.97
2018-04-01T03:08:48.419Z,6.23
2018-04-01T03:11:14.285Z,4.90
2018-04-01T03:13:40.146Z,6.93
2018-04-01T03:16:06.736Z,6.77
2018-04-01T03:18:36.128Z,8.77
2018-04-01T03:21:02.056Z,10.50
2018-04-01T03:23:27.934Z,13.33
2018-04-01T03:25:53.780Z,13.90
2018-04-01T03:28:19.669Z,14.93
2018-04-01T03:30:45.540Z,13.67
2018-04-01T03:33:11.508Z,10.80
2018-04-01T03:35:37.459Z,8.53
2018-04-01T03:38:04.105Z,6.67
2018-04-01T03:40:34.023Z,4.40
2018-04-01T03:42:59.900Z,5.17
2018-04-01T03:45:25.788Z,6.17
2018-04-01T03:47:52.392Z,6.70
2018-04-01T03:50:18.263Z,8.40
2018-04-01T03:52:44.881Z,7.33
2018-04-01T03:55:11.669Z,7.33
2018-04-01T03:57:38.580Z,6.97
2018-04-01T04:00:04.492Z,6.13
2018-04-01T04:02:31.230Z,6.30
2018-04-01T04:04:57.118Z,5.80
2018-04-01T04:07:23.785Z,4.97
2018-04-01T04:09:49.703Z,3.97
2018-04-01T04:12:15.977Z,4.37
2018-04-01T04:14:42.609Z,4.70
2018-04-01T04:17:08.823Z,4.33
2018-04-01T04:19:34.801Z,3.57
2018-04-01T04:22:01.335Z,3.37
2018-04-01T04:24:27.200Z,3.23
2018-04-01T04:26:54.008Z,3.67
2018-04-01T04:29:19.864Z,3.80
2018-04-01T04:31:46.495Z,3.00
2018-04-01T04:34:13.107Z,2.40
2018-04-01T04:36:38.985Z,2.23
2018-04-01T04:39:04.871Z,1.50
2018-04-01T04:41:31.522Z,1.90
2018-04-01T04:43:58.203Z,2.23
2018-04-01T04:46:24.882Z,1.80
2018-04-01T04:48:50.809Z,1.67
2018-04-01T04:51:18.998Z,1.67
2018-04-01T04:53:44.894Z,2.00
2018-04-01T04:56:10.817Z,2.50
2018-04-01T04:58:36.733Z,2.30
2018-04-01T05:01:02.607Z,2.53
2018-04-01T05:03:29.682Z,3.37
2018-04-01T05:05:56.365Z,3.97
2018-04-01T05:08:22.286Z,4.87
2018-04-01T05:10:48.873Z,3.97
2018-04-01T05:13:14.745Z,5.00
2018-04-01T05:15:40.611Z,5.60
2018-04-01T05:18:06.506Z,5.27
2018-04-01T05:20:33.109Z,6.03
2018-04-01T05:22:58.989Z,4.93
2018-04-01T05:25:24.860Z,4.80
2018-04-01T05:27:51.464Z,4.90
2018-04-01T05:30:17.316Z,5.33
2018-04-01T05:32:43.926Z,6.00
2018-04-01T05:35:09.813Z,5.50
2018-04-01T05:37:35.810Z,5.20
2018-04-01T05:40:01.671Z,4.87
2018-04-01T05:42:27.516Z,5.30
2018-04-01T05:44:54.092Z,5.20
2018-04-01T05:47:19.947Z,5.80
2018-04-01T05:49:45.834Z,5.90
2018-04-01T05:52:11.702Z,4.60
2018-04-01T05:54:38.294Z,5.83
2018-04-01T05:57:04.154Z,4.97
2018-04-01T05:59:30.755Z,5.27
2018-04-01T06:01:56.616Z,6.20
2018-04-01T06:04:22.461Z,4.70
2018-04-01T06:06:48.357Z,4.73
2018-04-01T06:09:17.142Z,3.77
2018-04-01T06:11:43.009Z,4.53
2018-04-01T06:14:08.900Z,4.97
2018-04-01T06:16:34.760Z,5.40
2018-04-01T06:19:01.348Z,6.07
2018-04-01T06:21:27.214Z,6.40
2018-04-01T06:23:53.823Z,6.50
2018-04-01T06:26:19.681Z,7.00
2018-04-01T06:28:45.528Z,11.20
2018-04-01T06:31:11.426Z,12.17
2018-04-01T06:33:37.282Z,12.13
2018-04-01T06:36:03.135Z,11.10
2018-04-01T06:38:29.784Z,11.30
2018-04-01T06:40:55.656Z,11.43
2018-04-01T06:43:21.510Z,12.37
2018-04-01T06:45:47.352Z,16.37
2018-04-01T06:48:13.205Z,17.70
2018-04-01T06:50:39.055Z,18.43
2018-04-01T06:53:05.125Z,16.03
2018-04-01T06:55:30.975Z,15.17
2018-04-01T06:57:59.580Z,13.33
2018-04-01T07:00:25.441Z,12.43
2018-04-01T07:02:51.292Z,11.37
2018-04-01T07:05:18.127Z,10.87
2018-04-01T07:07:44.700Z,10.47
2018-04-01T07:10:10.560Z,10.70
2018-04-01T07:12:37.224Z,11.67
2018-04-01T07:15:03.081Z,11.27
2018-04-01T07:17:28.951Z,10.37
2018-04-01T07:19:54.799Z,12.73
2018-04-01T07:22:20.677Z,8.23
2018-04-01T07:24:47.310Z,9.27
2018-04-01T07:27:13.943Z,11.30
2018-04-01T07:29:40.584Z,14.07
2018-04-01T07:32:07.164Z,11.57
2018-04-01T07:34:33.023Z,15.57
2018-04-01T07:36:59.606Z,19.40
2018-04-01T07:39:25.489Z,23.37
2018-04-01T07:41:51.357Z,34.57
2018-04-01T07:44:17.288Z,38.20
2018-04-01T07:46:43.148Z,44.70
2018-04-01T07:49:08.984Z,38.47
2018-04-01T07:51:34.847Z,40.23
2018-04-01T07:54:01.470Z,42.53
2018-04-01T07:56:27.315Z,33.90
2018-04-01T07:58:53.889Z,31.90
2018-04-01T08:01:20.525Z,30.60
2018-04-01T08:03:46.390Z,28.70
2018-04-01T08:06:13.000Z,28.70
2018-04-01T08:08:38.859Z,29.23
2018-04-01T08:11:04.680Z,31.83
2018-04-01T08:13:30.545Z,30.33
2018-04-01T08:15:56.420Z,30.50
2018-04-01T08:18:22.296Z,31.67
2018-04-01T08:20:48.880Z,34.40
2018-04-01T08:23:14.755Z,33.53
2018-04-01T08:25:41.350Z,31.17
2018-04-01T08:28:07.203Z,32.23
2018-04-01T08:30:34.684Z,32.10
2018-04-01T08:33:00.610Z,33.30
2018-04-01T08:35:26.506Z,31.00
2018-04-01T08:37:52.384Z,38.47
2018-04-01T08:40:18.242Z,36.60
2018-04-01T08:42:44.105Z,34.37
2018-04-01T08:45:09.974Z,34.67
2018-04-01T08:47:35.878Z,36.60
2018-04-01T08:50:01.987Z,36.47
2018-04-01T08:52:28.605Z,43.77
2018-04-01T08:54:54.465Z,36.77
2018-04-01T08:57:20.342Z,36.67
2018-04-01T08:59:46.951Z,34.57
2018-04-01T09:02:12.805Z,31.60
2018-04-01T09:04:40.805Z,32.23
2018-04-01T09:07:06.665Z,33.97
2018-04-01T09:09:39.269Z,34.23
2018-04-01T09:12:05.914Z,32.10
2018-04-01T09:14:31.805Z,32.73
2018-04-01T09:16:58.426Z,37.23
2018-04-01T09:19:24.633Z,35.73
2018-04-01T09:21:50.509Z,33.70
2018-04-01T09:24:16.414Z,38.87
2018-04-01T09:26:43.006Z,38.37
2018-04-01T09:29:09.123Z,37.73
2018-04-01T09:31:34.994Z,40.90
2018-04-01T09:34:01.603Z,36.97
2018-04-01T09:36:28.433Z,39.20
2018-04-01T09:38:54.336Z,38.10
2018-04-01T09:41:27.870Z,45.40
2018-04-01T09:43:53.748Z,39.17
2018-04-01T09:46:19.629Z,41.30
2018-04-01T09:48:45.476Z,37.60
2018-04-01T09:51:12.573Z,36.93
2018-04-01T09:53:38.415Z,35.23
2018-04-01T09:56:04.295Z,39.00
2018-04-01T09:58:31.771Z,39.33
2018-04-01T10:01:00.753Z,38.07
2018-04-01T10:03:26.745Z,32.57
2018-04-01T10:05:53.451Z,34.87
2018-04-01T10:08:19.427Z,31.87
2018-04-01T10:10:45.400Z,31.50
2018-04-01T10:13:11.363Z,28.93
2018-04-01T10:15:37.313Z,28.57
2018-04-01T10:18:03.283Z,32.47
2018-04-01T10:20:31.472Z,32.73
2018-04-01T10:22:57.432Z,29.00
2018-04-01T10:25:23.370Z,28.73
2018-04-01T10:27:49.317Z,28.03
2018-04-01T10:30:15.273Z,27.07
2018-04-01T10:32:41.248Z,24.37
2018-04-01T10:35:07.923Z,23.50
2018-04-01T10:37:33.883Z,23.73
2018-04-01T10:40:00.603Z,24.10
2018-04-01T10:42:26.772Z,29.30
2018-04-01T10:44:53.693Z,33.77
2018-04-01T10:47:20.409Z,34.70
2018-04-01T10:49:46.355Z,44.17
2018-04-01T10:52:12.292Z,43.87
2018-04-01T10:54:38.124Z,34.93
2018-04-01T10:57:03.960Z,37.00
2018-04-01T10:59:30.829Z,43.87
2018-04-01T11:01:57.469Z,45.63
2018-04-01T11:04:24.072Z,49.10
2018-04-01T11:06:49.907Z,53.07
2018-04-01T11:09:15.786Z,55.07
2018-04-01T11:11:41.666Z,46.60
2018-04-01T11:14:08.491Z,43.37
2018-04-01T11:16:35.121Z,50.00
2018-04-01T11:19:01.750Z,52.03
2018-04-01T11:21:28.357Z,50.13
2018-04-01T11:23:54.227Z,49.30
2018-04-01T11:26:20.123Z,49.90
2018-04-01T11:28:46.728Z,52.30
2018-04-01T11:31:12.611Z,49.07
2018-04-01T11:33:38.476Z,49.60
2018-04-01T11:36:05.123Z,48.03
2018-04-01T11:38:35.425Z,49.80
2018-04-01T11:41:01.300Z,45.93
2018-04-01T11:43:27.771Z,47.03
2018-04-01T11:45:53.646Z,49.50
2018-04-01T11:50:51.145Z,46.27
2018-04-01T11:53:18.222Z,46.00
2018-04-01T11:55:45.537Z,43.60
2018-04-01T11:58:11.389Z,44.63
2018-04-01T12:00:38.922Z,40.70
2018-04-01T12:03:05.486Z,42.30
2018-04-01T12:05:31.339Z,43.40
2018-04-01T12:07:57.249Z,41.20
2018-04-01T12:10:23.099Z,38.87
2018-04-01T12:12:48.958Z,41.93
2018-04-01T12:15:14.862Z,43.47
2018-04-01T12:17:40.730Z,45.43
2018-04-01T12:20:06.651Z,47.77
2018-04-01T12:22:32.473Z,47.90
2018-04-01T12:24:58.342Z,47.83
2018-04-01T12:27:24.172Z,50.80
2018-04-01T12:29:50.025Z,48.70
2018-04-01T12:32:15.895Z,50.83
2018-04-01T12:34:46.479Z,54.20
2018-04-01T12:37:13.075Z,50.30
2018-04-01T12:39:38.949Z,50.17
2018-04-01T12:42:06.161Z,53.83
2018-04-01T12:44:31.995Z,54.80
2018-04-01T12:46:57.824Z,52.30
2018-04-01T12:49:24.439Z,57.27
2018-04-01T12:51:50.305Z,51.53
2018-04-01T12:54:16.171Z,45.90
2018-04-01T12:56:42.776Z,52.63
2018-04-01T12:59:08.612Z,52.57
2018-04-01T13:01:34.483Z,48.10
2018-04-01T13:04:00.391Z,45.87
2018-04-01T13:06:26.228Z,43.97
2018-04-01T13:08:52.073Z,47.20
2018-04-01T13:11:17.934Z,44.57
2018-04-01T13:13:43.825Z,44.27
2018-04-01T13:16:10.416Z,45.03
2018-04-01T13:18:37.401Z,45.73
2018-04-01T13:21:04.266Z,43.03
2018-04-01T13:23:30.139Z,43.27
2018-04-01T13:25:55.997Z,39.67
2018-04-01T13:28:21.877Z,40.07
2018-04-01T13:30:48.315Z,41.43
2018-04-01T13:33:16.356Z,33.77
2018-04-01T13:35:42.237Z,38.17
2018-04-01T13:38:08.084Z,36.23
2018-04-01T13:40:34.696Z,40.43
2018-04-01T13:43:00.547Z,40.60
2018-04-01T13:45:26.392Z,41.53
2018-04-01T13:47:53.022Z,40.33
2018-04-01T13:50:20.111Z,40.90
2018-04-01T13:52:45.981Z,43.07
2018-04-01T13:55:12.584Z,42.53
2018-04-01T13:57:42.358Z,42.27
2018-04-01T14:00:08.221Z,45.63
2018-04-01T14:02:34.079Z,46.17
2018-04-01T14:04:59.942Z,44.80
2018-04-01T14:07:25.820Z,46.03
2018-04-01T14:09:51.681Z,43.93
2018-04-01T14:12:17.561Z,43.33
2018-04-01T14:14:43.451Z,43.00
2018-04-01T14:17:09.298Z,43.33
2018-04-01T14:19:35.549Z,46.97
2018-04-01T14:22:01.427Z,44.90
2018-04-01T14:24:27.281Z,44.70
2018-04-01T14:26:53.114Z,43.17
2018-04-01T14:29:18.974Z,38.13
2018-04-01T14:31:44.820Z,37.27
2018-04-01T14:34:11.671Z,40.47
2018-04-01T14:36:37.540Z,40.13
2018-04-01T14:39:03.473Z,38.97
2018-04-01T14:41:29.360Z,41.70
2018-04-01T14:43:55.208Z,38.17
2018-04-01T14:46:21.093Z,36.90
2018-04-01T14:48:46.920Z,38.97
2018-04-01T14:51:12.786Z,36.47
2018-04-01T14:53:38.623Z,37.83
2018-04-01T14:56:05.257Z,40.70
2018-04-01T14:58:31.853Z,40.37
2018-04-01T15:00:57.967Z,40.60
2018-04-01T15:03:23.855Z,42.80
2018-04-01T15:05:49.720Z,43.73
2018-04-01T15:08:15.577Z,44.13
2018-04-01T15:10:41.428Z,44.27
2018-04-01T15:13:07.342Z,45.43
2018-04-01T15:15:33.227Z,46.13
2018-04-01T15:18:00.900Z,45.33
2018-04-01T15:20:26.751Z,43.63
2018-04-01T15:22:52.638Z,44.33
2018-04-01T15:25:18.507Z,46.53
2018-04-01T15:27:45.153Z,46.50
2018-04-01T15:30:11.744Z,46.20
2018-04-01T15:32:38.485Z,46.23
2018-04-01T15:35:04.382Z,46.50
2018-04-01T15:37:30.947Z,47.27
2018-04-01T15:39:56.807Z,45.23
2018-04-01T15:42:22.652Z,45.10
2018-04-01T15:44:48.508Z,44.87
2018-04-01T15:47:16.005Z,37.00
2018-04-01T15:49:41.874Z,34.00
2018-04-01T15:52:08.605Z,29.53
2018-04-01T15:54:34.495Z,28.17
2018-04-01T15:57:00.337Z,26.33
2018-04-01T15:59:26.165Z,25.00
2018-04-01T16:01:53.777Z,23.73
2018-04-01T16:04:19.613Z,24.47
2018-04-01T16:06:45.453Z,24.40
2018-04-01T16:09:12.035Z,23.80
2018-04-01T16:11:37.865Z,24.70
2018-04-01T16:14:03.739Z,23.53
2018-04-01T16:16:29.584Z,24.30
2018-04-01T16:18:55.421Z,22.30
2018-04-01T16:21:21.271Z,22.90
2018-04-01T16:23:47.871Z,22.93
2018-04-01T16:26:13.735Z,20.57
2018-04-01T16:28:39.587Z,20.10
2018-04-01T16:31:06.876Z,18.43
2018-04-01T16:33:33.988Z,18.43
2018-04-01T16:36:01.119Z,16.83
2018-04-01T16:38:30.856Z,16.27
2018-04-01T16:40:56.738Z,15.43
2018-04-01T16:43:22.588Z,15.13
2018-04-01T16:45:48.451Z,15.43
2018-04-01T16:48:14.300Z,14.70
2018-04-01T16:50:40.165Z,14.50
2018-04-01T16:53:06.764Z,13.93
2018-04-01T16:55:32.641Z,14.50
2018-04-01T16:57:58.488Z,13.50
2018-04-01T17:00:24.336Z,13.77
2018-04-01T17:02:50.959Z,13.50
2018-04-01T17:05:16.843Z,14.67
2018-04-01T17:07:42.708Z,15.07
2018-04-01T17:10:09.320Z,15.27
2018-04-01T17:12:35.173Z,15.43
2018-04-01T17:15:01.000Z,16.10
2018-04-01T17:17:26.851Z,15.90
2018-04-01T17:19:52.917Z,16.80
2018-04-01T17:22:19.517Z,16.60
2018-04-01T17:24:45.381Z,16.50
2018-04-01T17:27:11.251Z,16.77
2018-04-01T17:29:37.121Z,17.37
2018-04-01T17:32:02.966Z,17.27
2018-04-01T17:34:29.350Z,16.73
2018-04-01T17:37:02.776Z,17.03
2018-04-01T17:39:28.630Z,17.63
2018-04-01T17:41:54.494Z,17.53
2018-04-01T17:44:21.400Z,16.50
2018-04-01T17:46:48.012Z,17.13
2018-04-01T17:49:13.865Z,17.70
2018-04-01T17:51:40.242Z,17.90
2018-04-01T17:54:07.077Z,16.73
2018-04-01T17:56:35.633Z,18.17
2018-04-01T17:59:01.616Z,17.80
2018-04-01T18:01:28.481Z,17.53
2018-04-01T18:03:54.328Z,15.77
2018-04-01T18:06:21.444Z,17.00
2018-04-01T18:08:47.317Z,16.63
2018-04-01T18:11:13.162Z,16.10
2018-04-01T18:13:39.395Z,17.10
2018-04-01T18:16:05.267Z,18.00
2018-04-01T18:18:32.093Z,16.93
2018-04-01T18:20:58.683Z,18.80
2018-04-01T18:23:24.596Z,16.93
2018-04-01T18:25:52.673Z,17.40
2018-04-01T18:28:18.538Z,17.03
2018-04-01T18:30:44.391Z,16.63
2018-04-01T18:33:11.236Z,15.87
2018-04-01T18:35:37.111Z,15.83
2018-04-01T18:38:02.949Z,16.63
2018-04-01T18:40:29.539Z,16.63
2018-04-01T18:42:55.413Z,15.30
2018-04-01T18:45:21.277Z,15.60
2018-04-01T18:47:47.193Z,15.67
2018-04-01T18:50:14.897Z,15.37
2018-04-01T18:52:41.512Z,16.73
2018-04-01T18:55:09.338Z,15.40
2018-04-01T18:57:35.234Z,14.67
2018-04-01T19:00:01.878Z,15.10
2018-04-01T19:02:27.721Z,17.13
2018-04-01T19:04:53.871Z,15.73
2018-04-01T19:07:21.963Z,15.00
2018-04-01T19:09:47.835Z,15.27
2018-04-01T19:12:13.701Z,15.97
2018-04-01T19:14:40.312Z,14.47
2018-04-01T19:17:07.054Z,14.73
2018-04-01T19:19:33.714Z,14.17
2018-04-01T19:21:59.687Z,14.23
2018-04-01T19:24:26.471Z,15.83
2018-04-01T19:26:52.474Z,15.03
2018-04-01T19:29:19.417Z,13.73
2018-04-01T19:31:46.344Z,14.20
2018-04-01T19:34:13.044Z,13.27
2018-04-01T19:36:39.006Z,14.67
2018-04-01T19:39:05.806Z,14.77
2018-04-01T19:41:31.816Z,14.10
2018-04-01T19:43:57.808Z,13.27
2018-04-01T19:46:23.854Z,13.70
2018-04-01T19:49:04.589Z,12.97
2018-04-01T19:51:30.853Z,13.93
2018-04-01T19:53:56.817Z,14.33
2018-04-01T19:56:22.774Z,14.03
2018-04-01T19:58:48.752Z,13.30
2018-04-01T20:01:18.673Z,13.60
2018-04-01T20:03:44.631Z,13.33
2018-04-01T20:06:10.601Z,14.00
2018-04-01T20:08:36.579Z,14.00
2018-04-01T20:11:02.521Z,13.63
2018-04-01T20:13:29.221Z,13.73
2018-04-01T20:16:05.834Z,13.77
2018-04-01T20:21:29.960Z,13.50
2018-04-01T20:26:34.620Z,14.40
2018-04-01T20:29:01.150Z,15.47
2018-04-01T20:31:28.172Z,15.10
2018-04-01T20:33:55.080Z,14.33
2018-04-01T20:36:21.012Z,14.57
2018-04-01T20:38:47.886Z,15.13
2018-04-01T20:41:13.896Z,16.07
2018-04-01T20:43:39.947Z,14.97
2018-04-01T20:46:08.661Z,12.60
2018-04-01T20:48:34.597Z,11.47
2018-04-01T20:51:01.304Z,11.03
2018-04-01T20:53:27.998Z,11.43
2018-04-01T20:55:53.972Z,11.30
2018-04-01T20:58:19.957Z,12.00
2018-04-01T21:00:46.696Z,12.20
2018-04-01T21:03:13.641Z,12.43
2018-04-01T21:05:42.328Z,12.47
2018-04-01T21:08:09.018Z,11.97
2018-04-01T21:10:35.607Z,12.40
2018-04-01T21:13:01.812Z,12.73
2018-04-01T21:15:29.166Z,12.13
2018-04-01T21:17:55.857Z,11.93
2018-04-01T21:20:21.859Z,13.80
2018-04-01T21:22:47.873Z,13.77
2018-04-01T21:25:14.525Z,14.50
2018-04-01T21:27:40.480Z,16.17
2018-04-01T21:30:06.507Z,15.77
2018-04-01T21:32:33.477Z,15.10
2018-04-01T21:34:59.433Z,15.33
2018-04-01T21:37:25.405Z,15.67
2018-04-01T21:39:53.047Z,16.57
2018-04-01T21:42:19.741Z,17.70
2018-04-01T21:44:45.798Z,19.63
2018-04-01T21:47:12.508Z,25.03
2018-04-01T21:49:38.471Z,26.87
2018-04-01T21:52:05.183Z,24.63
2018-04-01T21:54:32.694Z,24.07
2018-04-01T21:56:59.332Z,23.70
2018-04-01T21:59:25.343Z,24.37
2018-04-01T22:01:52.525Z,21.70
2018-04-01T22:04:18.500Z,24.63
2018-04-01T22:06:44.432Z,24.83
2018-04-01T22:09:10.632Z,27.03
2018-04-01T22:11:37.384Z,27.07
2018-04-01T22:14:03.368Z,27.70
2018-04-01T22:16:30.066Z,28.33
2018-04-01T22:18:56.033Z,28.53
2018-04-01T22:21:22.741Z,28.87
2018-04-01T22:23:48.717Z,30.37
2018-04-01T22:26:15.418Z,29.20
2018-04-01T22:28:42.236Z,25.27
2018-04-01T22:31:08.216Z,25.83
2018-04-01T22:33:34.178Z,27.40
2018-04-01T22:36:00.129Z,28.03
2018-04-01T22:38:26.084Z,27.00
2018-04-01T22:40:52.033Z,26.07
2018-04-01T22:43:18.028Z,28.53
2018-04-01T22:45:44.061Z,27.57
2018-04-01T22:48:10.016Z,27.20
2018-04-01T22:50:35.980Z,26.67
2018-04-01T22:53:02.019Z,27.57
2018-04-01T22:55:27.965Z,23.93
2018-04-01T22:57:54.673Z,22.57
2018-04-01T23:00:20.637Z,22.00
2018-04-01T23:02:46.605Z,22.30
2018-04-01T23:05:12.566Z,22.57
2018-04-01T23:07:38.556Z,22.37
2018-04-01T23:10:05.300Z,23.00
2018-04-01T23:12:32.012Z,24.50
2018-04-01T23:14:57.978Z,25.60
2018-04-01T23:17:23.933Z,25.53
2018-04-01T23:19:49.877Z,25.30
2018-04-01T23:22:15.828Z,23.90
2018-04-01T23:24:41.793Z,23.70
2018-04-01T23:27:07.733Z,26.80
2018-04-01T23:29:33.683Z,23.03
2018-04-01T23:31:59.653Z,24.87
2018-04-01T23:34:25.613Z,25.53
2018-04-01T23:36:52.383Z,25.30
2018-04-01T23:39:18.341Z,26.47
2018-04-01T23:41:45.061Z,25.73
2018-04-01T23:44:11.009Z,24.00
2018-04-01T23:46:37.715Z,26.63
2018-04-01T23:49:03.670Z,24.63
2018-04-01T23:51:30.370Z,25.67
2018-04-01T23:53:56.338Z,23.07
2018-04-01T23:56:22.299Z,24.17
2018-04-01T23:58:48.328Z,24.93
